Time;durP1;ratioP1;P1;durP2;ratioP2;P2;SDS_P1;SDS_P2;PMS_P1;PMS_P2;Temp;Humidity;BMP_temperature;BMP_pressure;BME280_temperature;BME280_humidity;BME280_pressure;Samples;Min_cycle;Max_cycle;Signal;HPM_P1;HPM_P2
2022/09/03 00:00:42;;;;;;;4.15;2.30;;;;;;;;;;5071930;28;20028;-74
2022/09/03 00:03:08;;;;;;;3.08;2.08;;;;;;;;;;5072026;28;20029;-74
2022/09/03 00:06:01;;;;;;;2.63;2.08;;;;;;;;;;5071809;28;20031;-73
2022/09/03 00:08:31;;;;;;;3.42;2.47;;;;;;;;;;5063659;28;20392;-74
2022/09/03 00:11:12;;;;;;;2.53;2.08;;;;;;;;;;5071831;28;20023;-73
2022/09/03 00:13:42;;;;;;;2.90;2.10;;;;;;;;;;5072069;28;20421;-73
2022/09/03 00:16:10;;;;;;;2.15;2.00;;;;;;;;;;5071287;28;20522;-74
2022/09/03 00:18:43;;;;;;;2.47;2.05;;;;;;;;;;5071987;28;20032;-73
2022/09/03 00:21:13;;;;;;;2.60;2.15;;;;;;;;;;5071868;28;20025;-74
2022/09/03 00:23:41;;;;;;;2.28;2.08;;;;;;;;;;5071782;28;20103;-74
2022/09/03 00:26:26;;;;;;;2.70;2.38;;;;;;;;;;5072037;28;20031;-73
2022/09/03 00:29:02;;;;;;;2.42;1.90;;;;;;;;;;5072092;28;20031;-73
2022/09/03 00:31:36;;;;;;;2.60;1.80;;;;;;;;;;5071463;28;20029;-74
2022/09/03 00:34:04;;;;;;;3.70;2.45;;;;;;;;;;5071903;28;20033;-74
2022/09/03 00:36:49;;;;;;;2.47;2.03;;;;;;;;;;5071670;28;20061;-75
2022/09/03 00:39:16;;;;;;;2.70;2.20;;;;;;;;;;5071526;28;20021;-74
2022/09/03 00:42:05;;;;;;;2.95;1.77;;;;;;;;;;5071820;28;20024;-75
2022/09/03 00:44:43;;;;;;;3.47;2.08;;;;;;;;;;5071936;28;20460;-74
2022/09/03 00:47:17;;;;;;;3.35;1.98;;;;;;;;;;5071578;28;20532;-73
2022/09/03 00:49:54;;;;;;;3.78;2.30;;;;;;;;;;5071458;28;20037;-73
2022/09/03 00:52:34;;;;;;;2.55;2.17;;;;;;;;;;5071229;28;20028;-73
2022/09/03 00:55:19;;;;;;;2.75;1.90;;;;;;;;;;5071496;28;20024;-74
2022/09/03 00:57:46;;;;;;;2.95;2.10;;;;;;;;;;5072485;28;20032;-75
2022/09/03 01:00:19;;;;;;;3.08;2.13;;;;;;;;;;5075220;28;20392;-76
2022/09/03 01:02:48;;;;;;;2.78;2.33;;;;;;;;;;5075245;28;20418;-74
2022/09/03 01:05:30;;;;;;;2.55;2.22;;;;;;;;;;5075381;28;20825;-76
2022/09/03 01:08:15;;;;;;;2.42;2.17;;;;;;;;;;5075234;28;20032;-73
2022/09/03 01:10:52;;;;;;;2.65;2.40;;;;;;;;;;5075290;28;20035;-75
2022/09/03 01:13:37;;;;;;;2.70;2.33;;;;;;;;;;5074864;28;20436;-73
2022/09/03 01:16:21;;;;;;;2.42;2.10;;;;;;;;;;5074663;28;20052;-73
2022/09/03 01:19:07;;;;;;;2.95;2.33;;;;;;;;;;5074818;28;20494;-74
2022/09/03 01:21:52;;;;;;;2.83;2.30;;;;;;;;;;5074665;28;20032;-74
2022/09/03 01:24:28;;;;;;;3.03;2.20;;;;;;;;;;5074616;28;20382;-74
2022/09/03 01:27:00;;;;;;;3.58;2.42;;;;;;;;;;5074970;28;20074;-74
2022/09/03 01:29:26;;;;;;;2.80;2.15;;;;;;;;;;5074935;28;20025;-76
2022/09/03 01:31:52;;;;;;;2.85;2.45;;;;;;;;;;5074932;28;20025;-72
2022/09/03 01:34:25;;;;;;;2.88;2.50;;;;;;;;;;5074472;28;20024;-74
2022/09/03 01:36:57;;;;;;;3.83;2.92;;;;;;;;;;5074741;28;20032;-74
2022/09/03 01:39:37;;;;;;;2.60;2.30;;;;;;;;;;5074655;28;20025;-75
2022/09/03 01:42:14;;;;;;;3.60;2.90;;;;;;;;;;5074703;28;20016;-74
2022/09/03 01:45:00;;;;;;;3.35;2.65;;;;;;;;;;5074272;28;20082;-74
2022/09/03 01:47:48;;;;;;;3.17;2.88;;;;;;;;;;5074190;28;20112;-74
2022/09/03 01:50:33;;;;;;;3.45;2.92;;;;;;;;;;5074232;28;20021;-74
2022/09/03 01:53:18;;;;;;;4.88;3.00;;;;;;;;;;5074217;28;20073;-75
2022/09/03 01:55:56;;;;;;;3.78;3.40;;;;;;;;;;5074161;28;20025;-73
2022/09/03 01:58:22;;;;;;;4.90;2.75;;;;;;;;;;5074206;28;20029;-75
2022/09/03 02:00:51;;;;;;;3.30;2.45;;;;;;;;;;5074442;28;20025;-75
2022/09/03 02:03:17;;;;;;;3.28;2.65;;;;;;;;;;5074286;28;20403;-75
2022/09/03 02:05:45;;;;;;;4.53;3.15;;;;;;;;;;5074272;28;20104;-75
2022/09/03 02:08:12;;;;;;;5.07;3.00;;;;;;;;;;5074006;28;20037;-75
2022/09/03 02:10:41;;;;;;;3.78;3.00;;;;;;;;;;5073856;28;20021;-74
2022/09/03 02:13:10;;;;;;;3.65;3.17;;;;;;;;;;5074357;28;20494;-74
2022/09/03 02:15:41;;;;;;;3.85;3.33;;;;;;;;;;5073559;28;20084;-74
2022/09/03 02:18:10;;;;;;;4.20;3.35;;;;;;;;;;5074159;28;20122;-75
2022/09/03 02:20:37;;;;;;;3.53;2.92;;;;;;;;;;5073977;28;20033;-73
2022/09/03 02:23:03;;;;;;;5.00;3.63;;;;;;;;;;5073958;28;20029;-74
2022/09/03 02:25:34;;;;;;;3.70;2.85;;;;;;;;;;5073630;28;20024;-74
2022/09/03 02:28:00;;;;;;;3.80;3.40;;;;;;;;;;5074032;28;20043;-74
2022/09/03 02:30:26;;;;;;;3.63;3.20;;;;;;;;;;5073470;28;20067;-75
2022/09/03 02:32:53;;;;;;;4.50;3.47;;;;;;;;;;5073831;28;20494;-74
2022/09/03 02:35:19;;;;;;;3.90;3.17;;;;;;;;;;5073460;28;20036;-73
2022/09/03 02:37:45;;;;;;;4.22;3.55;;;;;;;;;;5073556;28;20028;-74
2022/09/03 02:40:11;;;;;;;3.70;3.40;;;;;;;;;;5072360;28;20436;-75
2022/09/03 02:42:37;;;;;;;3.75;3.35;;;;;;;;;;5073401;28;20483;-75
2022/09/03 02:45:11;;;;;;;5.05;4.15;;;;;;;;;;5073732;28;20070;-75
2022/09/03 02:47:39;;;;;;;4.13;3.72;;;;;;;;;;5073200;28;20378;-75
2022/09/03 02:50:05;;;;;;;4.13;3.72;;;;;;;;;;5073591;28;20028;-75
2022/09/03 02:52:31;;;;;;;5.05;3.97;;;;;;;;;;5073119;28;20349;-75
2022/09/03 02:54:57;;;;;;;4.47;3.63;;;;;;;;;;5073325;28;20051;-75
2022/09/03 02:57:23;;;;;;;3.90;3.45;;;;;;;;;;5072995;28;20033;-74
2022/09/03 02:59:49;;;;;;;4.30;3.65;;;;;;;;;;5073394;28;20037;-75
2022/09/03 03:02:16;;;;;;;6.60;3.80;;;;;;;;;;5072988;28;20029;-75
2022/09/03 03:04:42;;;;;;;5.15;4.65;;;;;;;;;;5073064;28;20108;-75
2022/09/03 03:07:08;;;;;;;6.63;3.80;;;;;;;;;;5073162;28;20031;-74
2022/09/03 03:09:34;;;;;;;4.57;3.78;;;;;;;;;;5072702;28;20111;-76
2022/09/03 03:12:00;;;;;;;4.38;3.92;;;;;;;;;;5073000;28;20361;-75
2022/09/03 03:14:26;;;;;;;5.13;4.45;;;;;;;;;;5072302;28;20025;-75
2022/09/03 03:16:52;;;;;;;5.35;4.80;;;;;;;;;;5072775;28;20040;-74
2022/09/03 03:19:18;;;;;;;4.50;4.00;;;;;;;;;;5072755;28;20024;-74
2022/09/03 03:21:44;;;;;;;5.63;4.97;;;;;;;;;;5071952;28;20028;-74
2022/09/03 03:24:11;;;;;;;5.25;4.75;;;;;;;;;;5072779;28;20456;-75
2022/09/03 03:26:37;;;;;;;5.50;4.90;;;;;;;;;;5072310;28;20032;-74
2022/09/03 03:29:03;;;;;;;5.72;5.13;;;;;;;;;;5072699;28;20035;-75
2022/09/03 03:31:30;;;;;;;5.30;4.80;;;;;;;;;;5072345;28;20060;-76
2022/09/03 03:33:57;;;;;;;5.13;4.60;;;;;;;;;;5072547;28;20064;-76
2022/09/03 03:36:25;;;;;;;6.68;5.45;;;;;;;;;;5072248;28;20032;-75
2022/09/03 03:38:53;;;;;;;4.90;4.28;;;;;;;;;;5072366;28;20467;-75
2022/09/03 03:41:21;;;;;;;5.53;4.28;;;;;;;;;;5072603;28;20483;-76
2022/09/03 03:43:47;;;;;;;5.40;4.88;;;;;;;;;;5072316;28;20460;-74
2022/09/03 03:46:14;;;;;;;5.57;5.07;;;;;;;;;;5072441;28;20020;-74
2022/09/03 03:48:40;;;;;;;8.07;5.25;;;;;;;;;;5071966;28;20391;-73
2022/09/03 03:51:09;;;;;;;5.20;4.75;;;;;;;;;;5072464;28;20036;-73
2022/09/03 03:53:38;;;;;;;6.85;5.00;;;;;;;;;;5071870;28;20024;-75
2022/09/03 03:56:06;;;;;;;5.43;4.93;;;;;;;;;;5072326;28;20029;-74
2022/09/03 03:58:32;;;;;;;5.85;5.05;;;;;;;;;;5071870;28;20025;-74
2022/09/03 04:01:09;;;;;;;9.10;5.60;;;;;;;;;;5072243;28;20074;-75
2022/09/03 04:03:35;;;;;;;4.60;4.20;;;;;;;;;;5071654;28;20498;-74
2022/09/03 04:06:03;;;;;;;8.00;5.60;;;;;;;;;;5070964;28;20033;-74
2022/09/03 04:08:30;;;;;;;5.55;4.75;;;;;;;;;;5071814;28;20032;-74
2022/09/03 04:11:00;;;;;;;5.30;4.70;;;;;;;;;;5072081;28;20036;-75
2022/09/03 04:13:32;;;;;;;6.07;5.47;;;;;;;;;;5071622;28;20438;-77
2022/09/03 04:16:05;;;;;;;5.57;4.78;;;;;;;;;;5071426;28;20399;-76
2022/09/03 04:18:32;;;;;;;5.53;5.00;;;;;;;;;;5071677;28;20530;-76
2022/09/03 04:21:03;;;;;;;5.30;4.72;;;;;;;;;;5071937;28;20544;-74
2022/09/03 04:23:30;;;;;;;8.05;5.00;;;;;;;;;;5071283;28;20025;-75
2022/09/03 04:25:56;;;;;;;6.45;5.05;;;;;;;;;;5071393;28;20028;-74
2022/09/03 04:28:22;;;;;;;9.20;7.03;;;;;;;;;;5070965;28;20021;-75
2022/09/03 04:30:48;;;;;;;9.57;7.70;;;;;;;;;;5071851;28;20032;-74
2022/09/03 04:33:14;;;;;;;7.72;5.63;;;;;;;;;;5075164;28;20111;-75
2022/09/03 04:35:41;;;;;;;7.72;6.18;;;;;;;;;;5075866;28;20463;-74
2022/09/03 04:38:07;;;;;;;7.85;6.88;;;;;;;;;;5075623;28;20032;-76
2022/09/03 04:40:34;;;;;;;7.53;6.13;;;;;;;;;;5075511;28;20028;-75
2022/09/03 04:43:00;;;;;;;5.53;5.03;;;;;;;;;;5075507;28;20033;-75
2022/09/03 04:45:27;;;;;;;5.88;5.30;;;;;;;;;;5074088;28;20028;-76
2022/09/03 04:47:57;;;;;;;5.55;5.03;;;;;;;;;;5075566;28;20039;-74
2022/09/03 04:50:23;;;;;;;5.70;5.13;;;;;;;;;;5075379;28;20056;-76
2022/09/03 04:52:49;;;;;;;5.47;4.78;;;;;;;;;;5075724;28;20035;-76
2022/09/03 04:55:15;;;;;;;4.70;4.20;;;;;;;;;;5075155;28;20059;-75
2022/09/03 04:57:43;;;;;;;5.38;4.47;;;;;;;;;;5075200;28;20028;-76
2022/09/03 05:00:10;;;;;;;5.60;5.03;;;;;;;;;;5075342;28;20039;-74
2022/09/03 05:02:36;;;;;;;5.90;5.28;;;;;;;;;;5075404;28;20040;-75
2022/09/03 05:05:03;;;;;;;5.75;5.20;;;;;;;;;;5075253;28;20035;-74
2022/09/03 05:07:37;;;;;;;5.03;4.40;;;;;;;;;;5075104;28;20043;-75
2022/09/03 05:10:05;;;;;;;5.10;4.60;;;;;;;;;;5075121;28;20029;-74
2022/09/03 05:12:32;;;;;;;5.25;4.75;;;;;;;;;;5075280;28;20051;-73
2022/09/03 05:15:04;;;;;;;5.30;4.55;;;;;;;;;;5075106;28;20049;-75
2022/09/03 05:17:30;;;;;;;5.80;4.80;;;;;;;;;;5074762;28;20051;-74
2022/09/03 05:19:56;;;;;;;5.15;4.18;;;;;;;;;;5075284;28;20032;-76
2022/09/03 05:22:23;;;;;;;6.30;5.05;;;;;;;;;;5074736;28;20421;-76
2022/09/03 05:24:49;;;;;;;5.05;4.38;;;;;;;;;;5075028;28;20036;-75
2022/09/03 05:27:15;;;;;;;5.75;4.88;;;;;;;;;;5074876;28;20075;-76
2022/09/03 05:30:00;;;;;;;6.03;4.55;;;;;;;;;;5074999;28;20467;-74
2022/09/03 05:32:29;;;;;;;5.30;4.78;;;;;;;;;;5074536;28;20139;-75
2022/09/03 05:34:55;;;;;;;5.60;5.00;;;;;;;;;;5074570;28;20097;-75
2022/09/03 05:37:22;;;;;;;5.05;4.50;;;;;;;;;;5074541;28;20578;-75
2022/09/03 05:39:48;;;;;;;6.18;4.80;;;;;;;;;;5072735;28;20041;-75
2022/09/03 05:42:14;;;;;;;5.43;4.93;;;;;;;;;;5073945;28;20111;-75
2022/09/03 05:44:44;;;;;;;6.13;5.45;;;;;;;;;;5073524;28;20439;-76
2022/09/03 05:47:10;;;;;;;4.85;4.35;;;;;;;;;;5073630;28;20025;-76
2022/09/03 05:49:36;;;;;;;6.10;5.43;;;;;;;;;;5073852;28;20115;-75
2022/09/03 05:52:02;;;;;;;6.05;5.15;;;;;;;;;;5074260;28;20375;-76
2022/09/03 05:54:28;;;;;;;8.88;7.90;;;;;;;;;;5074557;28;20029;-75
2022/09/03 05:56:54;;;;;;;9.77;8.00;;;;;;;;;;5073206;28;20042;-74
2022/09/03 05:59:20;;;;;;;6.68;5.70;;;;;;;;;;5074262;28;20024;-75
2022/09/03 06:01:48;;;;;;;6.13;4.95;;;;;;;;;;5073893;28;20028;-74
2022/09/03 06:04:15;;;;;;;5.95;5.38;;;;;;;;;;5073332;28;20394;-76
2022/09/03 06:06:45;;;;;;;5.45;4.95;;;;;;;;;;5073596;28;20041;-73
2022/09/03 06:09:12;;;;;;;6.10;5.07;;;;;;;;;;5073765;28;20614;-74
2022/09/03 06:11:39;;;;;;;5.78;5.18;;;;;;;;;;5073996;28;20410;-75
2022/09/03 06:14:10;;;;;;;5.55;4.63;;;;;;;;;;5073468;28;20028;-75
2022/09/03 06:16:37;;;;;;;4.50;4.07;;;;;;;;;;5073136;28;20068;-76
2022/09/03 06:19:08;;;;;;;5.60;5.10;;;;;;;;;;5073517;28;20028;-75
2022/09/03 06:21:35;;;;;;;5.93;5.32;;;;;;;;;;5073513;28;20494;-75
2022/09/03 06:24:02;;;;;;;5.35;4.82;;;;;;;;;;5072785;28;20024;-73
2022/09/03 06:26:28;;;;;;;6.55;5.10;;;;;;;;;;5064905;28;20046;-76
2022/09/03 06:28:55;;;;;;;6.05;5.20;;;;;;;;;;5052887;28;20483;-74
2022/09/03 06:31:22;;;;;;;6.15;5.00;;;;;;;;;;5068821;28;20034;-74
2022/09/03 06:33:48;;;;;;;5.60;5.03;;;;;;;;;;5072410;28;20067;-75
2022/09/03 06:36:16;;;;;;;8.00;4.68;;;;;;;;;;5073313;28;20039;-75
2022/09/03 06:38:43;;;;;;;4.80;4.30;;;;;;;;;;5073371;28;20025;-75
2022/09/03 06:41:10;;;;;;;5.40;4.57;;;;;;;;;;5072883;28;20059;-74
2022/09/03 06:43:37;;;;;;;4.88;4.43;;;;;;;;;;5073175;28;20124;-75
2022/09/03 06:46:05;;;;;;;5.63;4.78;;;;;;;;;;5072858;28;20020;-74
2022/09/03 06:48:32;;;;;;;4.90;4.40;;;;;;;;;;5072617;28;20376;-75
2022/09/03 06:50:58;;;;;;;4.65;4.25;;;;;;;;;;5072581;28;20028;-76
2022/09/03 06:53:28;;;;;;;5.20;4.70;;;;;;;;;;5072398;28;20510;-74
2022/09/03 06:55:57;;;;;;;5.45;4.68;;;;;;;;;;5071443;28;20071;-75
2022/09/03 06:58:24;;;;;;;4.47;4.00;;;;;;;;;;5072796;28;20107;-76
2022/09/03 07:00:53;;;;;;;5.53;4.55;;;;;;;;;;5072525;28;20024;-75
2022/09/03 07:03:20;;;;;;;4.85;4.30;;;;;;;;;;5072923;28;20028;-77
2022/09/03 07:05:47;;;;;;;4.82;3.40;;;;;;;;;;5072400;28;20048;-76
2022/09/03 07:08:13;;;;;;;4.03;3.63;;;;;;;;;;5072710;28;20027;-75
2022/09/03 07:10:39;;;;;;;3.88;3.47;;;;;;;;;;5072166;28;20029;-76
2022/09/03 07:13:05;;;;;;;5.57;3.97;;;;;;;;;;5072852;28;20063;-76
2022/09/03 07:15:32;;;;;;;6.82;4.28;;;;;;;;;;5072555;28;20445;-75
2022/09/03 07:17:59;;;;;;;6.47;4.00;;;;;;;;;;5072444;28;20028;-74
2022/09/03 07:20:25;;;;;;;5.35;4.80;;;;;;;;;;5072274;28;20549;-74
2022/09/03 07:22:54;;;;;;;4.15;3.75;;;;;;;;;;5071950;28;20028;-74
2022/09/03 07:25:20;;;;;;;4.50;4.10;;;;;;;;;;5069989;28;20552;-75
2022/09/03 07:27:49;;;;;;;5.30;4.30;;;;;;;;;;5067527;28;20035;-75
2022/09/03 07:30:16;;;;;;;4.80;4.30;;;;;;;;;;5072318;28;20029;-75
2022/09/03 07:32:42;;;;;;;7.00;6.30;;;;;;;;;;5072137;28;20452;-75
2022/09/03 07:35:08;;;;;;;4.75;4.00;;;;;;;;;;5072073;28;20107;-75
2022/09/03 07:37:34;;;;;;;5.10;4.00;;;;;;;;;;5072070;28;20040;-74
2022/09/03 07:40:00;;;;;;;4.13;3.03;;;;;;;;;;5072022;28;20036;-75
2022/09/03 07:42:29;;;;;;;4.10;3.67;;;;;;;;;;5072154;28;20105;-75
2022/09/03 07:44:57;;;;;;;4.38;3.15;;;;;;;;;;5071798;28;20382;-75
2022/09/03 07:47:24;;;;;;;4.18;3.67;;;;;;;;;;5070461;28;20028;-75
2022/09/03 07:49:51;;;;;;;3.90;3.47;;;;;;;;;;5071357;28;20031;-76
2022/09/03 07:52:17;;;;;;;4.57;4.18;;;;;;;;;;5072030;28;20074;-74
2022/09/03 07:54:43;;;;;;;4.13;3.70;;;;;;;;;;5071918;28;20043;-75
2022/09/03 07:57:09;;;;;;;4.13;3.72;;;;;;;;;;5071792;28;20047;-75
2022/09/03 07:59:35;;;;;;;5.10;3.80;;;;;;;;;;5072058;28;20506;-76
2022/09/03 08:02:04;;;;;;;5.10;3.58;;;;;;;;;;5071581;28;20047;-75
2022/09/03 08:04:32;;;;;;;4.60;4.03;;;;;;;;;;5071688;28;20032;-76
2022/09/03 08:06:59;;;;;;;3.95;3.55;;;;;;;;;;5071005;28;20482;-75
2022/09/03 08:09:25;;;;;;;3.53;3.15;;;;;;;;;;5071723;28;20498;-74
2022/09/03 08:11:51;;;;;;;3.60;2.80;;;;;;;;;;5068414;28;20020;-75
2022/09/03 08:14:17;;;;;;;3.85;3.45;;;;;;;;;;5072285;28;20040;-75
2022/09/03 08:16:48;;;;;;;4.75;3.17;;;;;;;;;;5071635;28;20040;-76
2022/09/03 08:19:17;;;;;;;3.67;3.28;;;;;;;;;;5071710;28;20140;-74
2022/09/03 08:21:43;;;;;;;4.68;3.65;;;;;;;;;;5072404;28;20471;-75
2022/09/03 08:24:11;;;;;;;4.47;3.35;;;;;;;;;;5071926;28;20443;-75
2022/09/03 08:26:39;;;;;;;3.38;2.13;;;;;;;;;;5071706;28;20116;-75
2022/09/03 08:29:05;;;;;;;3.42;2.47;;;;;;;;;;5072086;28;20034;-75
2022/09/03 08:31:32;;;;;;;3.78;2.70;;;;;;;;;;5072124;28;20024;-75
2022/09/03 08:34:05;;;;;;;3.63;3.00;;;;;;;;;;5071736;28;20423;-75
2022/09/03 08:36:32;;;;;;;3.25;2.83;;;;;;;;;;5104297;28;20047;-75
2022/09/03 08:39:02;;;;;;;3.65;2.75;;;;;;;;;;5071848;28;20021;-76
2022/09/03 08:41:37;;;;;;;3.00;2.50;;;;;;;;;;5071423;28;20036;-75
2022/09/03 08:44:22;;;;;;;4.20;2.72;;;;;;;;;;5072031;28;20036;-75
2022/09/03 08:46:55;;;;;;;2.85;2.47;;;;;;;;;;5072157;28;20031;-75
2022/09/03 08:49:27;;;;;;;3.42;2.70;;;;;;;;;;5071521;28;20103;-76
2022/09/03 08:51:56;;;;;;;3.15;2.85;;;;;;;;;;5071708;28;20582;-76
2022/09/03 08:54:24;;;;;;;2.92;2.70;;;;;;;;;;5071625;28;20032;-75
2022/09/03 08:56:51;;;;;;;4.95;3.50;;;;;;;;;;5070756;28;20037;-76
2022/09/03 08:59:17;;;;;;;3.72;3.13;;;;;;;;;;5071227;28;20020;-75
2022/09/03 09:01:51;;;;;;;3.15;2.58;;;;;;;;;;5071084;28;20035;-76
2022/09/03 09:04:33;;;;;;;3.63;2.47;;;;;;;;;;5071237;28;20495;-76
2022/09/03 09:07:06;;;;;;;3.35;2.75;;;;;;;;;;5070658;28;20468;-76
2022/09/03 09:09:35;;;;;;;4.07;3.10;;;;;;;;;;5069921;28;20028;-78
2022/09/03 09:12:19;;;;;;;4.07;3.05;;;;;;;;;;5070262;28;20551;-76
2022/09/03 09:15:04;;;;;;;4.63;2.70;;;;;;;;;;5070708;28;20063;-78
2022/09/03 09:17:43;;;;;;;3.25;2.95;;;;;;;;;;5065409;28;20044;-77
2022/09/03 09:20:09;;;;;;;3.30;2.80;;;;;;;;;;5072466;28;20056;-77
2022/09/03 09:22:35;;;;;;;3.38;2.70;;;;;;;;;;5068815;28;20096;-77
2022/09/03 09:25:04;;;;;;;4.00;3.15;;;;;;;;;;5068448;28;20021;-79
2022/09/03 09:27:32;;;;;;;15.32;13.73;;;;;;;;;;5069560;28;20379;-76
2022/09/03 09:30:00;;;;;;;3.92;2.70;;;;;;;;;;5072344;28;20438;-77
2022/09/03 09:32:26;;;;;;;3.15;2.50;;;;;;;;;;5073283;28;20090;-76
2022/09/03 09:34:53;;;;;;;3.10;2.70;;;;;;;;;;5061088;28;20025;-77
2022/09/03 09:37:20;;;;;;;3.80;2.80;;;;;;;;;;5073230;28;20036;-77
2022/09/03 09:39:57;;;;;;;3.88;3.22;;;;;;;;;;5069714;28;20028;-77
2022/09/03 09:42:23;;;;;;;3.60;2.70;;;;;;;;;;5074699;28;20058;-77
2022/09/03 09:44:49;;;;;;;3.55;3.00;;;;;;;;;;5074472;28;20024;-76
2022/09/03 09:47:34;;;;;;;4.70;3.47;;;;;;;;;;5075160;28;20027;-76
2022/09/03 09:50:01;;;;;;;6.63;5.53;;;;;;;;;;5074722;28;20062;-78
2022/09/03 09:52:29;;;;;;;3.08;2.70;;;;;;;;;;5074733;28;20021;-78
2022/09/03 09:55:07;;;;;;;4.63;3.60;;;;;;;;;;5074263;28;20056;-76
2022/09/03 09:57:33;;;;;;;6.22;4.70;;;;;;;;;;5074012;28;20032;-77
2022/09/03 10:00:11;;;;;;;3.47;2.58;;;;;;;;;;5073062;28;20036;-76
2022/09/03 10:02:41;;;;;;;3.88;2.78;;;;;;;;;;5073921;28;20025;-76
2022/09/03 10:05:14;;;;;;;5.55;2.60;;;;;;;;;;5073936;28;20025;-76
2022/09/03 10:07:41;;;;;;;3.00;2.70;;;;;;;;;;5074347;28;20032;-77
2022/09/03 10:10:13;;;;;;;2.95;2.35;;;;;;;;;;5074109;28;20037;-76
2022/09/03 10:12:45;;;;;;;2.88;2.60;;;;;;;;;;5074095;28;20032;-78
2022/09/03 10:15:11;;;;;;;2.95;2.40;;;;;;;;;;5066796;28;20049;-77
2022/09/03 10:17:56;;;;;;;5.05;2.83;;;;;;;;;;5053991;28;20052;-77
2022/09/03 10:20:43;;;;;;;3.80;2.97;;;;;;;;;;5053919;28;20099;-78
2022/09/03 10:23:15;;;;;;;3.78;2.65;;;;;;;;;;5053775;28;20028;-78
2022/09/03 10:26:03;;;;;;;3.28;2.60;;;;;;;;;;5053618;28;20017;-77
2022/09/03 10:28:30;;;;;;;4.47;2.95;;;;;;;;;;5051989;28;20029;-77
2022/09/03 10:31:03;;;;;;;4.80;2.90;;;;;;;;;;5053851;28;20035;-77
2022/09/03 10:33:33;;;;;;;2.60;2.40;;;;;;;;;;5054499;28;20029;-78
2022/09/03 10:36:18;;;;;;;4.80;3.53;;;;;;;;;;5053318;28;20021;-77
2022/09/03 10:38:49;;;;;;;3.28;2.97;;;;;;;;;;5054018;28;20033;-76
2022/09/03 10:41:15;;;;;;;4.15;3.22;;;;;;;;;;5053899;28;20108;-76
2022/09/03 10:44:00;;;;;;;3.70;2.92;;;;;;;;;;5053536;28;20028;-77
2022/09/03 10:46:28;;;;;;;3.15;2.83;;;;;;;;;;5066823;28;20111;-78
2022/09/03 10:48:57;;;;;;;5.45;4.00;;;;;;;;;;5073066;28;20491;-78
2022/09/03 10:51:32;;;;;;;3.85;2.80;;;;;;;;;;5073798;28;20471;-76
2022/09/03 10:54:02;;;;;;;3.20;2.80;;;;;;;;;;5073377;28;20562;-76
2022/09/03 10:56:28;;;;;;;3.53;3.22;;;;;;;;;;5073792;28;20028;-76
2022/09/03 10:59:01;;;;;;;2.92;2.38;;;;;;;;;;5105159;28;20414;-76
2022/09/03 11:01:27;;;;;;;2.30;2.00;;;;;;;;;;5072723;28;20036;-77
2022/09/03 11:04:13;;;;;;;2.67;2.38;;;;;;;;;;5073032;28;20032;-77
2022/09/03 11:06:59;;;;;;;3.10;2.80;;;;;;;;;;5073008;28;20100;-77
2022/09/03 11:09:43;;;;;;;3.53;3.08;;;;;;;;;;5072702;28;20028;-76
2022/09/03 11:12:18;;;;;;;3.55;3.08;;;;;;;;;;5073009;28;20444;-75
2022/09/03 11:14:46;;;;;;;2.85;2.50;;;;;;;;;;5072343;28;20048;-76
2022/09/03 11:17:20;;;;;;;2.85;2.55;;;;;;;;;;5072438;28;20086;-77
2022/09/03 11:19:49;;;;;;;3.53;3.15;;;;;;;;;;5072615;28;20697;-75
2022/09/03 11:22:17;;;;;;;3.88;3.42;;;;;;;;;;5072336;28;20016;-76
2022/09/03 11:24:44;;;;;;;3.30;3.00;;;;;;;;;;5072552;28;20043;-76
2022/09/03 11:27:13;;;;;;;3.50;3.00;;;;;;;;;;5072434;28;20027;-75
2022/09/03 11:29:39;;;;;;;3.78;3.47;;;;;;;;;;5072594;28;20491;-75
2022/09/03 11:32:10;;;;;;;4.53;3.50;;;;;;;;;;5072203;28;20024;-75
2022/09/03 11:34:47;;;;;;;3.85;2.47;;;;;;;;;;5072329;28;20029;-77
2022/09/03 11:37:21;;;;;;;4.05;2.78;;;;;;;;;;5071717;28;20040;-76
2022/09/03 11:40:07;;;;;;;4.00;2.85;;;;;;;;;;5072529;28;20033;-77
2022/09/03 11:42:41;;;;;;;3.50;3.20;;;;;;;;;;5071842;28;20483;-76
2022/09/03 11:45:25;;;;;;;3.28;2.97;;;;;;;;;;5071977;28;20119;-76
2022/09/03 11:47:52;;;;;;;4.57;2.90;;;;;;;;;;5072003;28;20031;-74
2022/09/03 11:50:19;;;;;;;3.85;3.17;;;;;;;;;;5071554;28;20383;-75
2022/09/03 11:52:46;;;;;;;3.63;3.33;;;;;;;;;;5072602;28;20060;-75
2022/09/03 11:55:23;;;;;;;4.40;4.00;;;;;;;;;;5072008;28;20078;-76
2022/09/03 11:57:49;;;;;;;2.80;2.33;;;;;;;;;;5072127;28;20032;-75
2022/09/03 12:00:20;;;;;;;3.00;2.70;;;;;;;;;;5071379;28;20032;-75
2022/09/03 12:02:52;;;;;;;2.88;2.35;;;;;;;;;;5071733;28;20114;-76
2022/09/03 12:05:37;;;;;;;4.15;2.67;;;;;;;;;;5071591;28;20029;-76
2022/09/03 12:08:06;;;;;;;2.30;2.10;;;;;;;;;;5071383;28;20051;-77
2022/09/03 12:10:51;;;;;;;2.38;2.00;;;;;;;;;;5071966;28;20525;-76
2022/09/03 12:13:23;;;;;;;3.05;2.75;;;;;;;;;;5071734;28;20024;-76
2022/09/03 12:16:06;;;;;;;2.50;2.20;;;;;;;;;;5071283;28;20053;-77
2022/09/03 12:18:34;;;;;;;2.35;2.10;;;;;;;;;;5071754;28;20032;-76
2022/09/03 12:21:04;;;;;;;3.65;3.03;;;;;;;;;;5071772;28;20544;-76
2022/09/03 12:23:32;;;;;;;2.55;2.30;;;;;;;;;;5072156;28;20025;-79
2022/09/03 12:26:16;;;;;;;2.65;1.80;;;;;;;;;;5071917;28;20055;-77
2022/09/03 12:28:44;;;;;;;2.42;2.22;;;;;;;;;;5072011;28;20077;-78
2022/09/03 12:31:22;;;;;;;3.42;2.92;;;;;;;;;;5071383;28;20035;-78
2022/09/03 12:34:08;;;;;;;3.10;2.80;;;;;;;;;;5071700;28;20560;-78
2022/09/03 12:36:42;;;;;;;3.75;2.55;;;;;;;;;;5071451;28;20103;-76
2022/09/03 12:39:09;;;;;;;3.83;3.42;;;;;;;;;;5068206;28;20056;-80
2022/09/03 12:41:36;;;;;;;2.78;2.20;;;;;;;;;;5053782;28;20063;-75
2022/09/03 12:44:02;;;;;;;2.55;2.35;;;;;;;;;;5051509;28;20025;-78
2022/09/03 12:46:33;;;;;;;2.78;1.60;;;;;;;;;;5051606;28;20025;-77
2022/09/03 12:49:04;;;;;;;2.80;2.20;;;;;;;;;;5051535;28;20107;-76
2022/09/03 12:51:41;;;;;;;2.28;2.08;;;;;;;;;;5051497;28;20052;-78
2022/09/03 12:54:14;;;;;;;2.67;1.98;;;;;;;;;;5054582;28;20032;-79
2022/09/03 12:56:41;;;;;;;3.42;2.00;;;;;;;;;;5055169;28;20044;-81
2022/09/03 12:59:11;;;;;;;2.35;1.80;;;;;;;;;;5055452;28;20053;-77
2022/09/03 13:01:58;;;;;;;2.75;2.50;;;;;;;;;;5055421;28;20029;-74
2022/09/03 13:04:26;;;;;;;2.20;2.00;;;;;;;;;;5055284;28;20051;-76
2022/09/03 13:07:00;;;;;;;3.65;2.13;;;;;;;;;;5055220;28;20051;-76
2022/09/03 13:09:28;;;;;;;2.42;2.10;;;;;;;;;;5055175;28;20033;-78
2022/09/03 13:11:57;;;;;;;3.92;2.30;;;;;;;;;;5055224;28;20036;-77
2022/09/03 13:14:24;;;;;;;5.05;2.72;;;;;;;;;;5053220;28;20033;-77
2022/09/03 13:17:02;;;;;;;2.20;2.00;;;;;;;;;;5055506;28;20476;-77
2022/09/03 13:19:47;;;;;;;2.20;2.00;;;;;;;;;;5055350;28;20103;-78
2022/09/03 13:22:19;;;;;;;4.20;3.80;;;;;;;;;;5055519;28;20033;-76
2022/09/03 13:25:04;;;;;;;1.95;1.67;;;;;;;;;;5055420;28;20483;-77
2022/09/03 13:27:48;;;;;;;2.30;2.10;;;;;;;;;;5055274;28;20025;-77
2022/09/03 13:30:16;;;;;;;2.75;2.30;;;;;;;;;;5055137;28;20017;-78
2022/09/03 13:32:52;;;;;;;2.83;2.63;;;;;;;;;;5055211;28;20044;-78
2022/09/03 13:35:36;;;;;;;2.78;2.35;;;;;;;;;;5055118;28;20029;-77
2022/09/03 13:38:09;;;;;;;2.03;1.75;;;;;;;;;;5055123;28;20036;-77
2022/09/03 13:40:37;;;;;;;2.38;2.17;;;;;;;;;;5054972;28;20103;-77
2022/09/03 13:43:13;;;;;;;3.00;2.70;;;;;;;;;;5055126;28;20471;-78
2022/09/03 13:46:00;;;;;;;3.58;2.85;;;;;;;;;;5055012;28;20028;-78
2022/09/03 13:51:36;;;;;;;2.85;2.60;;;;;;;;;;5055286;28;20035;-77
2022/09/03 13:54:14;;;;;;;3.38;2.60;;;;;;;;;;5055130;28;20052;-76
2022/09/03 13:56:47;;;;;;;2.72;2.53;;;;;;;;;;5054461;28;20431;-75
2022/09/03 13:59:19;;;;;;;3.00;2.45;;;;;;;;;;5054260;28;20029;-77
2022/09/03 14:02:03;;;;;;;4.25;3.45;;;;;;;;;;5054516;28;20021;-76
2022/09/03 14:04:48;;;;;;;4.40;3.90;;;;;;;;;;5053959;28;20439;-76
2022/09/03 14:07:23;;;;;;;3.85;2.90;;;;;;;;;;5054161;28;20032;-75
2022/09/03 14:10:03;;;;;;;3.15;2.85;;;;;;;;;;5053987;28;20029;-76
2022/09/03 14:12:48;;;;;;;5.00;3.70;;;;;;;;;;5054164;28;20108;-76
2022/09/03 14:15:22;;;;;;;3.85;3.28;;;;;;;;;;5053689;28;20052;-76
2022/09/03 14:17:48;;;;;;;;;;;;;;;;;;5054451;28;20495;-75
2022/09/03 14:20:14;;;;;;;3.85;3.45;;;;;;;;;;5053974;28;19905;-76
2022/09/03 14:22:43;;;;;;;3.80;2.78;;;;;;;;;;5054283;28;20083;-77
2022/09/03 14:25:28;;;;;;;6.15;4.88;;;;;;;;;;5053760;28;20021;-77
2022/09/03 14:27:54;;;;;;;3.00;2.70;;;;;;;;;;5053796;28;20545;-76
2022/09/03 14:30:39;;;;;;;3.25;2.80;;;;;;;;;;5053779;28;20033;-76
2022/09/03 14:33:11;;;;;;;4.68;3.35;;;;;;;;;;5053965;28;20029;-76
2022/09/03 14:36:07;;;;;;;5.32;3.83;;;;;;;;;;5053463;28;20029;-76
2022/09/03 14:38:51;;;;;;;3.72;3.08;;;;;;;;;;5049064;28;20041;-76
2022/09/03 14:41:23;;;;;;;3.30;3.00;;;;;;;;;;5053501;28;20025;-77
2022/09/03 14:44:08;;;;;;;3.85;3.05;;;;;;;;;;5053699;28;20028;-75
2022/09/03 14:46:55;;;;;;;3.20;2.90;;;;;;;;;;5053540;28;20391;-76
2022/09/03 14:49:30;;;;;;;5.25;3.13;;;;;;;;;;5053130;28;20036;-76
2022/09/03 14:52:16;;;;;;;3.20;2.90;;;;;;;;;;5053641;28;20044;-76
2022/09/03 14:54:44;;;;;;;2.83;2.63;;;;;;;;;;5053415;28;20388;-76
2022/09/03 14:57:26;;;;;;;4.00;2.80;;;;;;;;;;5052974;28;20047;-76
2022/09/03 14:59:52;;;;;;;3.63;2.45;;;;;;;;;;5053112;28;20468;-76
2022/09/03 15:02:37;;;;;;;4.72;4.05;;;;;;;;;;5053435;28;20048;-76
2022/09/03 15:05:18;;;;;;;2.63;2.42;;;;;;;;;;5053304;28;20068;-76
2022/09/03 15:08:05;;;;;;;4.80;2.78;;;;;;;;;;5053326;28;20021;-77
2022/09/03 15:10:43;;;;;;;2.90;2.22;;;;;;;;;;5053074;28;20037;-76